sensor_id;sensor_type;location;lat;lon;timestamp;P1;durP1;ratioP1;P2;durP2;ratioP2
39896;SDS011;25567;48.276;14.242;2024-01-15T00:00:05;90.88;;;22.25;;
39896;SDS011;25567;48.276;14.242;2024-01-15T00:02:32;91.20;;;23.65;;
39896;SDS011;25567;48.276;14.242;2024-01-15T00:04:59;69.22;;;19.50;;
39896;SDS011;25567;48.276;14.242;2024-01-15T00:07:26;78.97;;;20.88;;
39896;SDS011;25567;48.276;14.242;2024-01-15T00:09:53;76.68;;;22.55;;
39896;SDS011;25567;48.276;14.242;2024-01-15T00:12:20;68.82;;;21.65;;
39896;SDS011;25567;48.276;14.242;2024-01-15T00:14:47;76.75;;;21.55;;
39896;SDS011;25567;48.276;14.242;2024-01-15T00:17:13;87.18;;;21.20;;
39896;SDS011;25567;48.276;14.242;2024-01-15T00:19:40;68.88;;;18.65;;
39896;SDS011;25567;48.276;14.242;2024-01-15T00:22:07;61.88;;;17.25;;
39896;SDS011;25567;48.276;14.242;2024-01-15T00:24:34;68.03;;;17.70;;
39896;SDS011;25567;48.276;14.242;2024-01-15T00:27:01;64.93;;;17.17;;
39896;SDS011;25567;48.276;14.242;2024-01-15T00:29:28;59.72;;;16.17;;
39896;SDS011;25567;48.276;14.242;2024-01-15T00:31:55;62.97;;;15.95;;
39896;SDS011;25567;48.276;14.242;2024-01-15T00:34:22;66.32;;;16.67;;
39896;SDS011;25567;48.276;14.242;2024-01-15T00:36:49;60.42;;;16.30;;
39896;SDS011;25567;48.276;14.242;2024-01-15T00:39:16;79.85;;;17.95;;
39896;SDS011;25567;48.276;14.242;2024-01-15T00:41:43;79.20;;;18.88;;
39896;SDS011;25567;48.276;14.242;2024-01-15T00:44:10;74.13;;;20.33;;
39896;SDS011;25567;48.276;14.242;2024-01-15T00:46:45;76.22;;;20.02;;
39896;SDS011;25567;48.276;14.242;2024-01-15T00:49:13;68.25;;;19.80;;
39896;SDS011;25567;48.276;14.242;2024-01-15T00:51:40;70.28;;;19.20;;
39896;SDS011;25567;48.276;14.242;2024-01-15T00:54:07;83.82;;;17.55;;
39896;SDS011;25567;48.276;14.242;2024-01-15T00:56:35;69.38;;;17.67;;
39896;SDS011;25567;48.276;14.242;2024-01-15T00:59:02;70.45;;;19.10;;
39896;SDS011;25567;48.276;14.242;2024-01-15T01:01:29;76.00;;;19.00;;
39896;SDS011;25567;48.276;14.242;2024-01-15T01:03:56;70.38;;;19.30;;
39896;SDS011;25567;48.276;14.242;2024-01-15T01:06:24;80.70;;;20.50;;
39896;SDS011;25567;48.276;14.242;2024-01-15T01:08:51;72.55;;;21.05;;
39896;SDS011;25567;48.276;14.242;2024-01-15T01:11:18;63.72;;;18.77;;
39896;SDS011;25567;48.276;14.242;2024-01-15T01:13:45;67.05;;;19.20;;
39896;SDS011;25567;48.276;14.242;2024-01-15T01:16:11;71.03;;;18.92;;
39896;SDS011;25567;48.276;14.242;2024-01-15T01:18:38;72.55;;;19.92;;
39896;SDS011;25567;48.276;14.242;2024-01-15T01:21:05;61.83;;;18.00;;
39896;SDS011;25567;48.276;14.242;2024-01-15T01:23:32;66.20;;;19.17;;
39896;SDS011;25567;48.276;14.242;2024-01-15T01:25:59;83.80;;;21.88;;
39896;SDS011;25567;48.276;14.242;2024-01-15T01:28:27;76.32;;;19.48;;
39896;SDS011;25567;48.276;14.242;2024-01-15T01:30:54;74.75;;;21.40;;
39896;SDS011;25567;48.276;14.242;2024-01-15T01:33:21;83.88;;;20.10;;
39896;SDS011;25567;48.276;14.242;2024-01-15T01:35:48;90.60;;;19.92;;
39896;SDS011;25567;48.276;14.242;2024-01-15T01:38:15;85.35;;;22.05;;
39896;SDS011;25567;48.276;14.242;2024-01-15T01:40:43;77.20;;;20.13;;
39896;SDS011;25567;48.276;14.242;2024-01-15T01:43:09;82.80;;;22.20;;
39896;SDS011;25567;48.276;14.242;2024-01-15T01:45:37;79.82;;;23.65;;
39896;SDS011;25567;48.276;14.242;2024-01-15T01:48:05;88.13;;;21.67;;
39896;SDS011;25567;48.276;14.242;2024-01-15T01:50:32;92.28;;;22.98;;
39896;SDS011;25567;48.276;14.242;2024-01-15T01:53:00;89.03;;;22.52;;
39896;SDS011;25567;48.276;14.242;2024-01-15T01:55:27;73.28;;;19.63;;
39896;SDS011;25567;48.276;14.242;2024-01-15T01:57:54;84.57;;;21.20;;
39896;SDS011;25567;48.276;14.242;2024-01-15T02:00:21;86.20;;;21.40;;
39896;SDS011;25567;48.276;14.242;2024-01-15T02:02:49;84.00;;;20.88;;
39896;SDS011;25567;48.276;14.242;2024-01-15T02:05:18;76.40;;;21.50;;
39896;SDS011;25567;48.276;14.242;2024-01-15T02:07:44;88.75;;;21.02;;
39896;SDS011;25567;48.276;14.242;2024-01-15T02:10:12;75.75;;;20.80;;
39896;SDS011;25567;48.276;14.242;2024-01-15T02:12:38;82.00;;;20.85;;
39896;SDS011;25567;48.276;14.242;2024-01-15T02:15:05;70.97;;;21.17;;
39896;SDS011;25567;48.276;14.242;2024-01-15T02:17:32;79.53;;;20.60;;
39896;SDS011;25567;48.276;14.242;2024-01-15T02:19:59;86.13;;;21.25;;
39896;SDS011;25567;48.276;14.242;2024-01-15T02:22:26;86.68;;;20.50;;
39896;SDS011;25567;48.276;14.242;2024-01-15T02:24:53;73.82;;;19.98;;
39896;SDS011;25567;48.276;14.242;2024-01-15T02:27:20;69.65;;;20.02;;
39896;SDS011;25567;48.276;14.242;2024-01-15T02:29:47;66.47;;;18.55;;
39896;SDS011;25567;48.276;14.242;2024-01-15T02:32:14;80.80;;;21.00;;
39896;SDS011;25567;48.276;14.242;2024-01-15T02:34:41;73.30;;;20.45;;
39896;SDS011;25567;48.276;14.242;2024-01-15T02:37:08;80.95;;;20.77;;
39896;SDS011;25567;48.276;14.242;2024-01-15T02:39:35;87.50;;;19.70;;
39896;SDS011;25567;48.276;14.242;2024-01-15T02:42:02;61.72;;;19.25;;
39896;SDS011;25567;48.276;14.242;2024-01-15T02:44:29;79.20;;;20.30;;
39896;SDS011;25567;48.276;14.242;2024-01-15T02:46:55;77.32;;;19.40;;
39896;SDS011;25567;48.276;14.242;2024-01-15T02:49:22;67.47;;;18.60;;
39896;SDS011;25567;48.276;14.242;2024-01-15T02:51:49;74.40;;;19.70;;
39896;SDS011;25567;48.276;14.242;2024-01-15T02:54:16;77.85;;;19.55;;
39896;SDS011;25567;48.276;14.242;2024-01-15T02:56:43;77.32;;;19.52;;
39896;SDS011;25567;48.276;14.242;2024-01-15T02:59:09;73.32;;;18.42;;
39896;SDS011;25567;48.276;14.242;2024-01-15T03:01:36;77.32;;;20.70;;
39896;SDS011;25567;48.276;14.242;2024-01-15T03:04:03;69.97;;;19.13;;
39896;SDS011;25567;48.276;14.242;2024-01-15T03:06:30;63.47;;;18.67;;
39896;SDS011;25567;48.276;14.242;2024-01-15T03:08:57;62.50;;;18.67;;
39896;SDS011;25567;48.276;14.242;2024-01-15T03:11:24;69.25;;;20.15;;
39896;SDS011;25567;48.276;14.242;2024-01-15T03:13:51;81.50;;;19.73;;
39896;SDS011;25567;48.276;14.242;2024-01-15T03:16:17;66.07;;;17.15;;
39896;SDS011;25567;48.276;14.242;2024-01-15T03:18:46;70.30;;;18.40;;
39896;SDS011;25567;48.276;14.242;2024-01-15T03:21:13;70.43;;;20.08;;
39896;SDS011;25567;48.276;14.242;2024-01-15T03:23:40;79.38;;;20.73;;
39896;SDS011;25567;48.276;14.242;2024-01-15T03:26:07;66.90;;;18.10;;
39896;SDS011;25567;48.276;14.242;2024-01-15T03:28:34;76.13;;;20.15;;
39896;SDS011;25567;48.276;14.242;2024-01-15T03:31:00;81.95;;;20.20;;
39896;SDS011;25567;48.276;14.242;2024-01-15T03:33:27;73.95;;;20.95;;
39896;SDS011;25567;48.276;14.242;2024-01-15T03:35:54;94.65;;;22.40;;
39896;SDS011;25567;48.276;14.242;2024-01-15T03:38:22;87.72;;;21.80;;
39896;SDS011;25567;48.276;14.242;2024-01-15T03:40:49;75.40;;;20.08;;
39896;SDS011;25567;48.276;14.242;2024-01-15T03:43:16;67.32;;;21.02;;
39896;SDS011;25567;48.276;14.242;2024-01-15T03:45:42;80.05;;;21.48;;
39896;SDS011;25567;48.276;14.242;2024-01-15T03:48:09;79.65;;;19.95;;
39896;SDS011;25567;48.276;14.242;2024-01-15T03:50:36;78.18;;;21.65;;
39896;SDS011;25567;48.276;14.242;2024-01-15T03:53:04;80.00;;;20.98;;
39896;SDS011;25567;48.276;14.242;2024-01-15T03:55:32;93.88;;;20.98;;
39896;SDS011;25567;48.276;14.242;2024-01-15T03:57:58;77.90;;;21.25;;
39896;SDS011;25567;48.276;14.242;2024-01-15T04:00:25;76.55;;;19.15;;
39896;SDS011;25567;48.276;14.242;2024-01-15T04:02:52;77.57;;;21.10;;
39896;SDS011;25567;48.276;14.242;2024-01-15T04:05:20;57.63;;;18.38;;
39896;SDS011;25567;48.276;14.242;2024-01-15T04:07:47;79.35;;;20.65;;
39896;SDS011;25567;48.276;14.242;2024-01-15T04:10:13;73.65;;;21.02;;
39896;SDS011;25567;48.276;14.242;2024-01-15T04:12:40;67.32;;;20.25;;
39896;SDS011;25567;48.276;14.242;2024-01-15T04:15:07;72.20;;;19.23;;
39896;SDS011;25567;48.276;14.242;2024-01-15T04:17:34;67.80;;;19.83;;
39896;SDS011;25567;48.276;14.242;2024-01-15T04:20:01;66.78;;;18.73;;
39896;SDS011;25567;48.276;14.242;2024-01-15T04:22:28;84.93;;;20.85;;
39896;SDS011;25567;48.276;14.242;2024-01-15T04:24:55;74.45;;;20.30;;
39896;SDS011;25567;48.276;14.242;2024-01-15T04:27:22;87.85;;;21.13;;
39896;SDS011;25567;48.276;14.242;2024-01-15T04:29:48;80.78;;;20.70;;
39896;SDS011;25567;48.276;14.242;2024-01-15T04:32:15;70.25;;;19.15;;
39896;SDS011;25567;48.276;14.242;2024-01-15T04:34:42;72.60;;;20.27;;
39896;SDS011;25567;48.276;14.242;2024-01-15T04:37:09;70.45;;;19.20;;
39896;SDS011;25567;48.276;14.242;2024-01-15T04:39:35;73.10;;;19.40;;
39896;SDS011;25567;48.276;14.242;2024-01-15T04:42:02;67.68;;;19.80;;
39896;SDS011;25567;48.276;14.242;2024-01-15T04:44:29;61.58;;;17.73;;
39896;SDS011;25567;48.276;14.242;2024-01-15T04:46:56;70.13;;;18.33;;
39896;SDS011;25567;48.276;14.242;2024-01-15T04:49:22;60.35;;;17.20;;
39896;SDS011;25567;48.276;14.242;2024-01-15T04:51:52;65.97;;;19.20;;
39896;SDS011;25567;48.276;14.242;2024-01-15T04:54:19;60.30;;;18.38;;
39896;SDS011;25567;48.276;14.242;2024-01-15T04:56:46;57.53;;;17.50;;
39896;SDS011;25567;48.276;14.242;2024-01-15T04:59:13;60.85;;;19.05;;
39896;SDS011;25567;48.276;14.242;2024-01-15T05:01:41;63.70;;;18.05;;
39896;SDS011;25567;48.276;14.242;2024-01-15T05:04:07;62.47;;;19.38;;
39896;SDS011;25567;48.276;14.242;2024-01-15T05:06:34;58.58;;;17.23;;
39896;SDS011;25567;48.276;14.242;2024-01-15T05:09:01;58.80;;;17.58;;
39896;SDS011;25567;48.276;14.242;2024-01-15T05:11:28;72.07;;;19.13;;
39896;SDS011;25567;48.276;14.242;2024-01-15T05:13:54;61.72;;;16.77;;
39896;SDS011;25567;48.276;14.242;2024-01-15T05:16:21;56.78;;;18.15;;
39896;SDS011;25567;48.276;14.242;2024-01-15T05:18:48;54.17;;;17.95;;
39896;SDS011;25567;48.276;14.242;2024-01-15T05:21:15;51.20;;;16.40;;
39896;SDS011;25567;48.276;14.242;2024-01-15T05:23:42;57.60;;;18.08;;
39896;SDS011;25567;48.276;14.242;2024-01-15T05:26:08;67.80;;;17.85;;
39896;SDS011;25567;48.276;14.242;2024-01-15T05:28:35;58.60;;;17.58;;
39896;SDS011;25567;48.276;14.242;2024-01-15T05:31:02;55.70;;;17.40;;
39896;SDS011;25567;48.276;14.242;2024-01-15T05:33:30;53.80;;;16.75;;
39896;SDS011;25567;48.276;14.242;2024-01-15T05:35:57;52.95;;;17.38;;
39896;SDS011;25567;48.276;14.242;2024-01-15T05:38:25;59.88;;;18.67;;
39896;SDS011;25567;48.276;14.242;2024-01-15T05:40:52;55.95;;;16.98;;
39896;SDS011;25567;48.276;14.242;2024-01-15T05:43:19;50.05;;;15.93;;
39896;SDS011;25567;48.276;14.242;2024-01-15T05:45:46;55.38;;;17.52;;
39896;SDS011;25567;48.276;14.242;2024-01-15T05:48:13;61.97;;;18.08;;
39896;SDS011;25567;48.276;14.242;2024-01-15T05:50:41;62.85;;;18.25;;
39896;SDS011;25567;48.276;14.242;2024-01-15T05:53:08;56.88;;;17.77;;
39896;SDS011;25567;48.276;14.242;2024-01-15T05:55:35;61.38;;;17.98;;
39896;SDS011;25567;48.276;14.242;2024-01-15T05:58:03;61.30;;;18.17;;
39896;SDS011;25567;48.276;14.242;2024-01-15T06:00:29;48.53;;;17.25;;
39896;SDS011;25567;48.276;14.242;2024-01-15T06:02:57;55.97;;;17.75;;
39896;SDS011;25567;48.276;14.242;2024-01-15T06:05:23;55.53;;;16.73;;
39896;SDS011;25567;48.276;14.242;2024-01-15T06:07:50;63.65;;;17.85;;
39896;SDS011;25567;48.276;14.242;2024-01-15T06:10:17;54.65;;;16.52;;
39896;SDS011;25567;48.276;14.242;2024-01-15T06:12:44;55.08;;;16.05;;
39896;SDS011;25567;48.276;14.242;2024-01-15T06:15:11;58.72;;;16.52;;
39896;SDS011;25567;48.276;14.242;2024-01-15T06:17:38;62.92;;;18.38;;
39896;SDS011;25567;48.276;14.242;2024-01-15T06:20:05;60.28;;;17.75;;
39896;SDS011;25567;48.276;14.242;2024-01-15T06:22:32;61.22;;;17.20;;
39896;SDS011;25567;48.276;14.242;2024-01-15T06:25:00;64.20;;;18.17;;
39896;SDS011;25567;48.276;14.242;2024-01-15T06:27:26;59.63;;;18.60;;
39896;SDS011;25567;48.276;14.242;2024-01-15T06:29:53;69.15;;;21.73;;
39896;SDS011;25567;48.276;14.242;2024-01-15T06:32:22;60.50;;;19.98;;
39896;SDS011;25567;48.276;14.242;2024-01-15T06:34:49;60.63;;;18.83;;
39896;SDS011;25567;48.276;14.242;2024-01-15T06:37:15;59.35;;;18.83;;
39896;SDS011;25567;48.276;14.242;2024-01-15T06:39:42;66.18;;;19.85;;
39896;SDS011;25567;48.276;14.242;2024-01-15T06:42:09;58.72;;;16.52;;
39896;SDS011;25567;48.276;14.242;2024-01-15T06:44:36;55.28;;;16.08;;
39896;SDS011;25567;48.276;14.242;2024-01-15T06:47:03;54.55;;;16.38;;
39896;SDS011;25567;48.276;14.242;2024-01-15T06:49:30;50.60;;;15.20;;
39896;SDS011;25567;48.276;14.242;2024-01-15T06:51:57;48.00;;;14.88;;
39896;SDS011;25567;48.276;14.242;2024-01-15T06:54:24;47.45;;;14.73;;
39896;SDS011;25567;48.276;14.242;2024-01-15T06:56:52;52.50;;;16.20;;
39896;SDS011;25567;48.276;14.242;2024-01-15T06:59:19;53.35;;;15.85;;
39896;SDS011;25567;48.276;14.242;2024-01-15T07:01:46;48.88;;;16.17;;
39896;SDS011;25567;48.276;14.242;2024-01-15T07:04:13;48.28;;;15.13;;
39896;SDS011;25567;48.276;14.242;2024-01-15T07:06:40;55.05;;;15.23;;
39896;SDS011;25567;48.276;14.242;2024-01-15T07:09:07;43.05;;;14.48;;
39896;SDS011;25567;48.276;14.242;2024-01-15T07:11:35;53.20;;;15.23;;
39896;SDS011;25567;48.276;14.242;2024-01-15T07:14:02;40.05;;;14.25;;
39896;SDS011;25567;48.276;14.242;2024-01-15T07:16:29;49.67;;;14.27;;
39896;SDS011;25567;48.276;14.242;2024-01-15T07:19:04;36.75;;;12.20;;
39896;SDS011;25567;48.276;14.242;2024-01-15T07:21:31;38.38;;;13.20;;
39896;SDS011;25567;48.276;14.242;2024-01-15T07:23:58;38.75;;;13.02;;
39896;SDS011;25567;48.276;14.242;2024-01-15T07:26:24;36.83;;;12.68;;
39896;SDS011;25567;48.276;14.242;2024-01-15T07:28:52;39.38;;;13.02;;
39896;SDS011;25567;48.276;14.242;2024-01-15T07:31:19;43.20;;;12.40;;
39896;SDS011;25567;48.276;14.242;2024-01-15T07:33:45;38.83;;;12.63;;
39896;SDS011;25567;48.276;14.242;2024-01-15T07:36:14;34.35;;;12.43;;
39896;SDS011;25567;48.276;14.242;2024-01-15T07:38:41;47.20;;;12.75;;
39896;SDS011;25567;48.276;14.242;2024-01-15T07:41:07;33.35;;;11.52;;
39896;SDS011;25567;48.276;14.242;2024-01-15T07:43:34;40.35;;;12.30;;
39896;SDS011;25567;48.276;14.242;2024-01-15T07:46:01;37.30;;;12.25;;
39896;SDS011;25567;48.276;14.242;2024-01-15T07:48:29;35.08;;;11.98;;
39896;SDS011;25567;48.276;14.242;2024-01-15T07:50:56;41.80;;;12.15;;
39896;SDS011;25567;48.276;14.242;2024-01-15T07:53:23;35.92;;;11.75;;
39896;SDS011;25567;48.276;14.242;2024-01-15T07:55:49;27.73;;;10.10;;
39896;SDS011;25567;48.276;14.242;2024-01-15T07:58:16;42.17;;;12.63;;
39896;SDS011;25567;48.276;14.242;2024-01-15T08:00:43;33.40;;;11.13;;
39896;SDS011;25567;48.276;14.242;2024-01-15T08:03:11;39.95;;;13.35;;
39896;SDS011;25567;48.276;14.242;2024-01-15T08:05:39;41.70;;;13.57;;
39896;SDS011;25567;48.276;14.242;2024-01-15T08:08:06;40.08;;;13.05;;
39896;SDS011;25567;48.276;14.242;2024-01-15T08:10:32;37.72;;;12.98;;
39896;SDS011;25567;48.276;14.242;2024-01-15T08:12:59;45.00;;;12.82;;
39896;SDS011;25567;48.276;14.242;2024-01-15T08:15:26;48.97;;;14.57;;
39896;SDS011;25567;48.276;14.242;2024-01-15T08:17:57;43.75;;;14.82;;
39896;SDS011;25567;48.276;14.242;2024-01-15T08:20:24;44.90;;;14.23;;
39896;SDS011;25567;48.276;14.242;2024-01-15T08:22:51;40.97;;;12.90;;
39896;SDS011;25567;48.276;14.242;2024-01-15T08:25:18;43.53;;;13.35;;
39896;SDS011;25567;48.276;14.242;2024-01-15T08:27:44;42.22;;;14.25;;
39896;SDS011;25567;48.276;14.242;2024-01-15T08:30:11;40.15;;;13.63;;
39896;SDS011;25567;48.276;14.242;2024-01-15T08:32:38;39.55;;;13.02;;
39896;SDS011;25567;48.276;14.242;2024-01-15T08:35:09;36.95;;;13.15;;
39896;SDS011;25567;48.276;14.242;2024-01-15T08:37:36;38.97;;;12.93;;
39896;SDS011;25567;48.276;14.242;2024-01-15T08:40:04;40.90;;;13.38;;
39896;SDS011;25567;48.276;14.242;2024-01-15T08:42:31;44.50;;;13.05;;
39896;SDS011;25567;48.276;14.242;2024-01-15T08:44:57;46.75;;;13.55;;
39896;SDS011;25567;48.276;14.242;2024-01-15T08:47:24;48.17;;;14.18;;
39896;SDS011;25567;48.276;14.242;2024-01-15T08:49:52;36.60;;;12.95;;
39896;SDS011;25567;48.276;14.242;2024-01-15T08:52:19;41.45;;;12.40;;
39896;SDS011;25567;48.276;14.242;2024-01-15T08:54:46;42.63;;;13.93;;
39896;SDS011;25567;48.276;14.242;2024-01-15T08:57:13;41.78;;;12.45;;
39896;SDS011;25567;48.276;14.242;2024-01-15T08:59:40;41.17;;;13.27;;
39896;SDS011;25567;48.276;14.242;2024-01-15T09:02:07;41.25;;;13.73;;
39896;SDS011;25567;48.276;14.242;2024-01-15T09:04:34;44.28;;;14.10;;
39896;SDS011;25567;48.276;14.242;2024-01-15T09:07:01;39.38;;;12.95;;
39896;SDS011;25567;48.276;14.242;2024-01-15T09:09:28;41.03;;;12.15;;
39896;SDS011;25567;48.276;14.242;2024-01-15T09:11:55;37.88;;;12.40;;
39896;SDS011;25567;48.276;14.242;2024-01-15T09:14:22;33.55;;;11.43;;
39896;SDS011;25567;48.276;14.242;2024-01-15T09:17:03;45.15;;;12.32;;
39896;SDS011;25567;48.276;14.242;2024-01-15T09:19:30;37.85;;;11.88;;
39896;SDS011;25567;48.276;14.242;2024-01-15T09:21:57;39.42;;;12.48;;
39896;SDS011;25567;48.276;14.242;2024-01-15T09:24:23;44.75;;;13.63;;
39896;SDS011;25567;48.276;14.242;2024-01-15T09:26:54;44.75;;;13.45;;
39896;SDS011;25567;48.276;14.242;2024-01-15T09:29:21;39.63;;;13.30;;
39896;SDS011;25567;48.276;14.242;2024-01-15T09:31:50;37.75;;;13.13;;
39896;SDS011;25567;48.276;14.242;2024-01-15T09:34:18;37.88;;;12.57;;
39896;SDS011;25567;48.276;14.242;2024-01-15T09:36:45;44.30;;;13.65;;
39896;SDS011;25567;48.276;14.242;2024-01-15T09:39:12;41.25;;;13.05;;
39896;SDS011;25567;48.276;14.242;2024-01-15T09:41:38;46.80;;;12.85;;
39896;SDS011;25567;48.276;14.242;2024-01-15T09:44:05;33.97;;;12.75;;
39896;SDS011;25567;48.276;14.242;2024-01-15T09:46:37;38.70;;;13.68;;
39896;SDS011;25567;48.276;14.242;2024-01-15T09:49:04;35.42;;;12.75;;
39896;SDS011;25567;48.276;14.242;2024-01-15T09:51:32;39.80;;;13.27;;
39896;SDS011;25567;48.276;14.242;2024-01-15T09:53:59;40.75;;;12.40;;
39896;SDS011;25567;48.276;14.242;2024-01-15T09:56:25;34.95;;;13.60;;
39896;SDS011;25567;48.276;14.242;2024-01-15T09:58:52;39.38;;;13.40;;
39896;SDS011;25567;48.276;14.242;2024-01-15T10:01:22;34.20;;;11.25;;
39896;SDS011;25567;48.276;14.242;2024-01-15T10:03:50;35.40;;;12.23;;
39896;SDS011;25567;48.276;14.242;2024-01-15T10:06:17;28.60;;;10.88;;
39896;SDS011;25567;48.276;14.242;2024-01-15T10:08:51;32.33;;;10.05;;
39896;SDS011;25567;48.276;14.242;2024-01-15T10:11:18;29.05;;;9.43;;
39896;SDS011;25567;48.276;14.242;2024-01-15T10:13:45;27.55;;;10.60;;
39896;SDS011;25567;48.276;14.242;2024-01-15T10:16:14;33.47;;;11.20;;
39896;SDS011;25567;48.276;14.242;2024-01-15T10:18:41;31.15;;;9.38;;
39896;SDS011;25567;48.276;14.242;2024-01-15T10:21:09;29.95;;;10.50;;
39896;SDS011;25567;48.276;14.242;2024-01-15T10:23:36;24.00;;;8.73;;
39896;SDS011;25567;48.276;14.242;2024-01-15T10:26:03;24.70;;;8.60;;
39896;SDS011;25567;48.276;14.242;2024-01-15T10:28:30;21.65;;;8.50;;
39896;SDS011;25567;48.276;14.242;2024-01-15T10:30:58;23.70;;;8.93;;
39896;SDS011;25567;48.276;14.242;2024-01-15T10:33:28;23.38;;;7.65;;
39896;SDS011;25567;48.276;14.242;2024-01-15T10:36:00;25.17;;;8.82;;
39896;SDS011;25567;48.276;14.242;2024-01-15T10:38:26;16.52;;;6.65;;
39896;SDS011;25567;48.276;14.242;2024-01-15T10:40:54;16.80;;;6.63;;
39896;SDS011;25567;48.276;14.242;2024-01-15T10:43:21;15.70;;;6.32;;
39896;SDS011;25567;48.276;14.242;2024-01-15T10:45:50;20.75;;;6.20;;
39896;SDS011;25567;48.276;14.242;2024-01-15T10:48:18;19.92;;;6.70;;
39896;SDS011;25567;48.276;14.242;2024-01-15T10:50:46;18.58;;;5.90;;
39896;SDS011;25567;48.276;14.242;2024-01-15T10:53:13;14.75;;;5.65;;
39896;SDS011;25567;48.276;14.242;2024-01-15T10:55:41;18.98;;;6.32;;
39896;SDS011;25567;48.276;14.242;2024-01-15T10:58:08;19.52;;;6.50;;
39896;SDS011;25567;48.276;14.242;2024-01-15T11:00:36;12.05;;;5.57;;
39896;SDS011;25567;48.276;14.242;2024-01-15T11:03:07;13.82;;;5.57;;
39896;SDS011;25567;48.276;14.242;2024-01-15T11:05:37;15.60;;;5.90;;
39896;SDS011;25567;48.276;14.242;2024-01-15T11:08:05;11.32;;;4.88;;
39896;SDS011;25567;48.276;14.242;2024-01-15T11:10:50;12.68;;;5.03;;
39896;SDS011;25567;48.276;14.242;2024-01-15T11:13:21;13.73;;;4.63;;
39896;SDS011;25567;48.276;14.242;2024-01-15T11:16:03;10.23;;;4.03;;
39896;SDS011;25567;48.276;14.242;2024-01-15T11:18:31;11.15;;;4.25;;
39896;SDS011;25567;48.276;14.242;2024-01-15T11:23:48;10.73;;;4.32;;
39896;SDS011;25567;48.276;14.242;2024-01-15T11:27:05;9.25;;;3.20;;
39896;SDS011;25567;48.276;14.242;2024-01-15T11:34:03;10.52;;;4.10;;
39896;SDS011;25567;48.276;14.242;2024-01-15T11:42:11;8.52;;;3.97;;
39896;SDS011;25567;48.276;14.242;2024-01-15T11:44:38;11.85;;;4.03;;
39896;SDS011;25567;48.276;14.242;2024-01-15T11:47:06;16.67;;;3.65;;
39896;SDS011;25567;48.276;14.242;2024-01-15T11:52:18;11.75;;;3.88;;
39896;SDS011;25567;48.276;14.242;2024-01-15T11:54:49;9.23;;;4.03;;
39896;SDS011;25567;48.276;14.242;2024-01-15T11:57:19;10.63;;;3.78;;
39896;SDS011;25567;48.276;14.242;2024-01-15T11:59:48;10.27;;;3.72;;
39896;SDS011;25567;48.276;14.242;2024-01-15T12:02:15;10.55;;;4.13;;
39896;SDS011;25567;48.276;14.242;2024-01-15T12:04:41;12.38;;;4.47;;
39896;SDS011;25567;48.276;14.242;2024-01-15T12:07:09;11.82;;;4.88;;
39896;SDS011;25567;48.276;14.242;2024-01-15T12:09:41;10.65;;;4.13;;
39896;SDS011;25567;48.276;14.242;2024-01-15T12:12:08;14.75;;;4.90;;
39896;SDS011;25567;48.276;14.242;2024-01-15T12:14:40;13.15;;;5.10;;
39896;SDS011;25567;48.276;14.242;2024-01-15T12:17:07;12.98;;;4.53;;
39896;SDS011;25567;48.276;14.242;2024-01-15T12:19:33;11.25;;;4.13;;
39896;SDS011;25567;48.276;14.242;2024-01-15T12:22:01;12.00;;;4.93;;
39896;SDS011;25567;48.276;14.242;2024-01-15T12:24:27;10.05;;;3.97;;
39896;SDS011;25567;48.276;14.242;2024-01-15T12:26:54;9.75;;;4.15;;
39896;SDS011;25567;48.276;14.242;2024-01-15T12:29:21;9.75;;;3.58;;
39896;SDS011;25567;48.276;14.242;2024-01-15T12:31:48;10.23;;;3.33;;
39896;SDS011;25567;48.276;14.242;2024-01-15T12:34:15;11.45;;;4.50;;
39896;SDS011;25567;48.276;14.242;2024-01-15T12:36:41;7.80;;;3.47;;
39896;SDS011;25567;48.276;14.242;2024-01-15T12:39:11;11.35;;;3.97;;
39896;SDS011;25567;48.276;14.242;2024-01-15T12:41:38;8.77;;;3.80;;
39896;SDS011;25567;48.276;14.242;2024-01-15T12:44:05;12.35;;;3.88;;
39896;SDS011;25567;48.276;14.242;2024-01-15T12:46:31;7.43;;;3.35;;
39896;SDS011;25567;48.276;14.242;2024-01-15T12:48:58;10.32;;;4.03;;
39896;SDS011;25567;48.276;14.242;2024-01-15T12:51:25;7.80;;;3.53;;
39896;SDS011;25567;48.276;14.242;2024-01-15T12:53:53;11.63;;;3.70;;
39896;SDS011;25567;48.276;14.242;2024-01-15T12:56:19;12.02;;;4.30;;
39896;SDS011;25567;48.276;14.242;2024-01-15T12:58:46;9.80;;;3.83;;
39896;SDS011;25567;48.276;14.242;2024-01-15T13:01:13;10.20;;;4.20;;
39896;SDS011;25567;48.276;14.242;2024-01-15T13:03:40;14.30;;;3.78;;
39896;SDS011;25567;48.276;14.242;2024-01-15T13:06:07;9.65;;;3.50;;
39896;SDS011;25567;48.276;14.242;2024-01-15T13:08:34;11.23;;;3.90;;
39896;SDS011;25567;48.276;14.242;2024-01-15T13:11:00;12.90;;;3.75;;
39896;SDS011;25567;48.276;14.242;2024-01-15T13:13:27;10.25;;;3.75;;
39896;SDS011;25567;48.276;14.242;2024-01-15T13:15:54;7.70;;;2.88;;
39896;SDS011;25567;48.276;14.242;2024-01-15T13:18:21;9.75;;;3.50;;
39896;SDS011;25567;48.276;14.242;2024-01-15T13:20:48;9.57;;;3.35;;
39896;SDS011;25567;48.276;14.242;2024-01-15T13:23:15;7.40;;;3.40;;
39896;SDS011;25567;48.276;14.242;2024-01-15T13:25:43;8.40;;;3.25;;
39896;SDS011;25567;48.276;14.242;2024-01-15T13:28:09;8.13;;;3.28;;
39896;SDS011;25567;48.276;14.242;2024-01-15T13:30:36;8.93;;;3.10;;
39896;SDS011;25567;48.276;14.242;2024-01-15T13:33:04;10.07;;;3.25;;
39896;SDS011;25567;48.276;14.242;2024-01-15T13:35:31;9.75;;;3.50;;
39896;SDS011;25567;48.276;14.242;2024-01-15T13:37:58;5.90;;;2.67;;
39896;SDS011;25567;48.276;14.242;2024-01-15T13:40:24;9.10;;;2.78;;
39896;SDS011;25567;48.276;14.242;2024-01-15T13:42:51;9.27;;;3.60;;
39896;SDS011;25567;48.276;14.242;2024-01-15T13:45:19;7.40;;;2.95;;
39896;SDS011;25567;48.276;14.242;2024-01-15T13:47:47;7.60;;;3.20;;
39896;SDS011;25567;48.276;14.242;2024-01-15T13:50:13;8.32;;;2.83;;
39896;SDS011;25567;48.276;14.242;2024-01-15T13:52:41;6.28;;;2.67;;
39896;SDS011;25567;48.276;14.242;2024-01-15T13:55:08;7.78;;;2.60;;
39896;SDS011;25567;48.276;14.242;2024-01-15T13:57:35;10.63;;;3.20;;
39896;SDS011;25567;48.276;14.242;2024-01-15T14:00:02;6.53;;;2.67;;
39896;SDS011;25567;48.276;14.242;2024-01-15T14:02:36;7.13;;;2.70;;
39896;SDS011;25567;48.276;14.242;2024-01-15T14:05:03;12.05;;;2.85;;
39896;SDS011;25567;48.276;14.242;2024-01-15T14:07:29;7.40;;;2.47;;
39896;SDS011;25567;48.276;14.242;2024-01-15T14:09:56;9.15;;;2.70;;
39896;SDS011;25567;48.276;14.242;2024-01-15T14:12:24;9.50;;;2.65;;
39896;SDS011;25567;48.276;14.242;2024-01-15T14:14:53;8.32;;;2.58;;
39896;SDS011;25567;48.276;14.242;2024-01-15T14:17:20;4.57;;;2.17;;
39896;SDS011;25567;48.276;14.242;2024-01-15T14:19:46;9.18;;;2.60;;
39896;SDS011;25567;48.276;14.242;2024-01-15T14:22:13;8.65;;;2.22;;
39896;SDS011;25567;48.276;14.242;2024-01-15T14:24:40;7.15;;;2.78;;
39896;SDS011;25567;48.276;14.242;2024-01-15T14:27:07;6.47;;;2.47;;
39896;SDS011;25567;48.276;14.242;2024-01-15T14:29:34;7.25;;;2.47;;